Strona główna
METAR-TAF:

METAR-TAF

Lotnisko :

Port lotniczy Mendoza

Mendoza, Argentyna

Szerokość geograficzna: 32-50S, Długość geograficzna: 068-47W, wysokość: 705 m

Aktualna obserwacja pogody

Raport powstał 57 minut temu, godzina 20:00 UTC
Wiatr 2 kt od zachód
Temperatura 12°C
Wilgotność 38%
Ciśnienie 1032 hPa
Widzialność 10 km lub więcej
Brak chmur poniżej 1500 m i brak chmur cumulonimbus

METAR: SAME 192000Z 27002KT CAVOK 12/M02 Q1032

czas: 17:57 (20:57 UTC)

Prognoza

Raport powstał 3 godziny i 57 minut temu, godzina 17:00 UTC
Prognoza ważna od 19 godzina 18 UTC do 20 godzina 18 UTC
Wiatr 10 kt od południe
Widzialność 10 km lub więcej
Rozproszone chmury na wysokości 8000 ft
Stopniowe zmiany
od 19 godzina 18 UTC do 19 godzina 20 UTC
Wiatr 5 kt od południowo-południowy wschód
Widzialność 10 km lub więcej
Rozproszone chmury na wysokości 4000 ft

TAF: SAME 191700Z 1918/2018 18010KT 9999 SCTR040 SCT080 TX12/1920Z TN02/2010Z BECMG 1918/1920 16005KT 9999 SCT040

Obserwacja i prognoza pogody dla ponad 4000 lotnisk (raport METAR i TAF).

Dostępne stacje oznaczono żółtymi i czerwonymi punktami na mapie.

Najedź kursorem aby zobaczyć nazwę stacji.

Kliknij aby zobaczyć obserwacje i prognozy pogody.

Aby zmienić mapę: kliknij na zielony przycisk z czarnym krzyżykiem, aby powiększyć; na zielony przycisk z myślnikiem, aby pomniejszyć; na zielone strzałki, aby przejść do map sąsiednich.


METAR-TAF: